Time;durP1;ratioP1;P1;durP2;ratioP2;P2;SDS_P1;SDS_P2;PMS_P1;PMS_P2;Temp;Humidity;BMP_temperature;BMP_pressure;BME280_temperature;BME280_humidity;BME280_pressure;Samples;Min_cycle;Max_cycle;Signal;HPM_P1;HPM_P2
2021/05/22 00:04:34;;;;;;;10.67;5.50;;;;;;;8.80;100.00;95019.38;10407095;28;20389;-76
2021/05/22 00:09:34;;;;;;;10.10;6.30;;;;;;;8.68;100.00;95008.84;10405431;28;20031;-76
2021/05/22 00:14:35;;;;;;;11.48;5.90;;;;;;;8.69;100.00;95010.47;10406901;28;20627;-76
2021/05/22 00:19:35;;;;;;;8.77;4.57;;;;;;;8.59;100.00;94994.28;10406453;28;20029;-76
2021/05/22 00:24:36;;;;;;;9.18;5.13;;;;;;;8.66;100.00;94994.09;10405652;28;20300;-76
2021/05/22 00:29:36;;;;;;;7.20;5.27;;;;;;;8.64;100.00;94990.88;10405203;28;20021;-76
2021/05/22 00:34:36;;;;;;;8.97;6.43;;;;;;;8.57;100.00;94988.38;10404866;28;20029;-76
2021/05/22 00:39:37;;;;;;;6.80;5.13;;;;;;;8.46;100.00;94990.16;10406224;28;20072;-76
2021/05/22 00:45:33;;;;;;;6.82;4.60;;;;;;;8.57;100.00;94990.22;10405361;28;20036;-76
2021/05/22 00:50:43;;;;;;;8.00;4.07;;;;;;;8.57;100.00;94976.84;10402071;28;20072;-76
2021/05/22 00:55:44;;;;;;;8.48;5.07;;;;;;;8.52;100.00;94988.31;10405304;28;20393;-76
2021/05/22 01:00:52;;;;;;;7.60;5.22;;;;;;;8.57;100.00;94977.66;10405146;28;20037;-76
2021/05/22 01:06:07;;;;;;;8.07;4.63;;;;;;;8.60;100.00;94969.13;10404462;28;20055;-76
2021/05/22 01:11:21;;;;;;;5.35;4.35;;;;;;;8.56;100.00;94976.03;10418453;28;20031;-76
2021/05/22 01:16:22;;;;;;;9.88;5.07;;;;;;;8.32;100.00;94973.66;10404570;28;20552;-76
2021/05/22 01:21:23;;;;;;;7.03;5.13;;;;;;;8.17;100.00;94970.81;10403943;28;20067;-76
2021/05/22 01:26:25;;;;;;;12.35;5.38;;;;;;;7.88;100.00;94979.06;10402140;28;20045;-76
2021/05/22 01:31:26;;;;;;;12.20;6.10;;;;;;;7.69;100.00;94975.91;10402763;28;20022;-76
2021/05/22 01:36:27;;;;;;;7.50;4.55;;;;;;;7.64;100.00;94976.63;10403749;28;20036;-77
2021/05/22 01:41:27;;;;;;;10.03;6.03;;;;;;;7.66;100.00;94990.59;10403984;28;20116;-76
2021/05/22 01:46:31;;;;;;;6.85;5.43;;;;;;;7.70;100.00;94994.38;10403747;28;20276;-76
2021/05/22 01:51:31;;;;;;;9.23;5.72;;;;;;;7.77;100.00;94983.50;10403737;28;20032;-76
2021/05/22 01:56:32;;;;;;;9.98;6.47;;;;;;;7.68;100.00;94993.81;10403042;28;20033;-76
2021/05/22 02:01:32;;;;;;;11.13;6.15;;;;;;;7.59;100.00;94997.97;10402069;28;20025;-77
2021/05/22 02:06:41;;;;;;;8.93;5.80;;;;;;;7.57;100.00;95005.44;10401382;28;20041;-77
2021/05/22 02:11:45;;;;;;;7.68;6.50;;;;;;;7.59;100.00;95003.34;10402430;28;20295;-77
2021/05/22 02:16:52;;;;;;;8.80;5.95;;;;;;;7.70;100.00;94991.72;10402615;28;20859;-78
2021/05/22 02:21:54;;;;;;;7.53;6.32;;;;;;;7.75;100.00;94974.91;10402791;28;20034;-77
2021/05/22 02:26:59;;;;;;;7.22;5.65;;;;;;;7.67;100.00;94973.47;10426356;28;20160;-76
2021/05/22 02:32:00;;;;;;;5.85;4.72;;;;;;;7.59;100.00;94984.63;10443953;28;20033;-76
2021/05/22 02:37:02;;;;;;;8.50;5.70;;;;;;;7.42;100.00;94984.63;10443074;28;20021;-77
2021/05/22 02:42:04;;;;;;;8.88;5.97;;;;;;;7.36;100.00;94989.09;10443428;28;20037;-77
2021/05/22 02:47:06;;;;;;;7.68;5.45;;;;;;;7.28;100.00;94981.50;10442958;28;20560;-77
2021/05/22 02:52:07;;;;;;;10.80;5.40;;;;;;;7.13;100.00;94979.44;10445125;28;20842;-77
2021/05/22 02:57:12;;;;;;;9.48;5.93;;;;;;;7.18;100.00;94978.69;10449773;28;20464;-77
2021/05/22 03:02:12;;;;;;;9.23;5.47;;;;;;;7.22;100.00;94987.84;10451195;28;20568;-76
2021/05/22 03:07:13;;;;;;;6.22;4.82;;;;;;;7.38;100.00;94996.06;10451033;28;20037;-78
2021/05/22 03:12:24;;;;;;;12.02;5.82;;;;;;;7.47;100.00;94997.28;10449466;28;20033;-76
2021/05/22 03:17:25;;;;;;;8.70;5.30;;;;;;;7.57;100.00;95000.09;10450608;28;20048;-76
2021/05/22 03:22:25;;;;;;;6.47;5.18;;;;;;;7.56;100.00;94998.47;10449918;28;20071;-76
2021/05/22 03:27:26;;;;;;;6.55;5.00;;;;;;;7.38;100.00;95014.78;10447986;28;20472;-76
2021/05/22 03:32:26;;;;;;;14.88;5.72;;;;;;;7.34;100.00;95020.63;10448474;28;20460;-76
2021/05/22 03:37:26;;;;;;;9.13;5.40;;;;;;;7.37;100.00;95035.38;10449373;28;20472;-76
2021/05/22 03:42:27;;;;;;;5.55;4.65;;;;;;;7.48;100.00;95026.44;10448928;28;20409;-76
2021/05/22 03:47:28;;;;;;;8.65;5.43;;;;;;;7.46;100.00;95047.25;10448924;28;20112;-76
2021/05/22 03:52:28;;;;;;;9.30;5.88;;;;;;;7.48;100.00;95060.38;10448623;28;20031;-76
2021/05/22 03:57:28;;;;;;;6.97;5.87;;;;;;;7.63;100.00;95067.84;10448582;28;20431;-76
2021/05/22 04:02:29;;;;;;;6.23;5.60;;;;;;;7.78;100.00;95062.69;10447518;28;20456;-76
2021/05/22 04:07:29;;;;;;;7.80;5.57;;;;;;;7.92;100.00;95065.81;10447552;28;20279;-76
2021/05/22 04:12:29;;;;;;;6.33;5.20;;;;;;;8.00;100.00;95054.69;10448196;28;20271;-76
2021/05/22 04:17:30;;;;;;;7.32;5.65;;;;;;;8.34;100.00;95045.69;10447855;28;20044;-77
2021/05/22 04:22:30;;;;;;;6.77;5.20;;;;;;;8.76;100.00;95039.72;10446245;28;20029;-76
2021/05/22 04:27:31;;;;;;;10.75;5.32;;;;;;;9.12;100.00;95028.50;10437299;28;20160;-74
2021/05/22 04:32:31;;;;;;;6.75;4.60;;;;;;;9.41;100.00;95019.03;10415587;28;20447;-74
2021/05/22 04:37:32;;;;;;;5.28;4.13;;;;;;;9.54;100.00;95025.03;10405514;28;20507;-74
2021/05/22 04:42:32;;;;;;;6.57;4.73;;;;;;;9.58;100.00;95034.97;10405139;28;20491;-74
2021/05/22 04:47:34;;;;;;;7.63;5.50;;;;;;;9.65;100.00;95034.75;10405932;28;20037;-74
2021/05/22 04:52:35;;;;;;;8.27;4.78;;;;;;;9.90;100.00;95041.34;10405178;28;20029;-74
2021/05/22 04:57:35;;;;;;;9.63;6.00;;;;;;;9.99;100.00;95058.56;10420032;28;20033;-74
2021/05/22 05:02:36;;;;;;;7.32;5.15;;;;;;;10.34;100.00;95062.50;10427422;28;20037;-74
2021/05/22 05:07:40;;;;;;;8.75;4.78;;;;;;;10.66;100.00;95055.34;10446841;28;20037;-74
2021/05/22 05:12:40;;;;;;;7.55;5.10;;;;;;;11.21;100.00;95053.00;10444136;28;20036;-74
2021/05/22 05:17:41;;;;;;;7.85;4.97;;;;;;;11.51;100.00;95062.13;10421056;28;20495;-74
2021/05/22 05:22:41;;;;;;;21.70;4.90;;;;;;;11.65;100.00;95073.94;10406066;28;20029;-74
2021/05/22 05:27:42;;;;;;;6.10;3.97;;;;;;;12.10;100.00;95083.03;10444619;28;20364;-74
2021/05/22 05:32:42;;;;;;;6.90;4.38;;;;;;;12.82;100.00;95095.41;10411181;28;20083;-74
2021/05/22 05:37:43;;;;;;;8.52;5.10;;;;;;;13.47;100.00;95102.59;10432821;28;20037;-74
2021/05/22 05:42:43;;;;;;;10.23;5.60;;;;;;;14.15;100.00;95100.88;10444290;28;20078;-74
2021/05/22 05:47:44;;;;;;;11.33;5.20;;;;;;;14.97;100.00;95108.03;10445861;28;20274;-74
2021/05/22 05:52:44;;;;;;;7.63;4.72;;;;;;;15.88;100.00;95096.09;10445444;28;20071;-74
2021/05/22 05:57:44;;;;;;;11.27;4.50;;;;;;;16.54;98.87;95101.38;10445748;28;20092;-74
2021/05/22 06:02:45;;;;;;;8.57;4.93;;;;;;;17.79;91.86;95105.75;10428491;28;20288;-74
2021/05/22 06:07:46;;;;;;;7.05;5.53;;;;;;;18.43;84.74;95099.19;10404378;28;20063;-74
2021/05/22 06:12:47;;;;;;;10.60;5.83;;;;;;;18.65;84.86;95108.41;10403572;28;20396;-75
2021/05/22 06:17:48;;;;;;;10.48;5.55;;;;;;;18.84;80.08;95121.75;10404470;28;20280;-74
2021/05/22 06:22:48;;;;;;;10.20;5.88;;;;;;;18.13;85.74;95128.03;10404365;28;20036;-74
2021/05/22 06:27:49;;;;;;;11.33;5.53;;;;;;;17.52;92.42;95123.75;10407753;28;20067;-74
2021/05/22 06:32:49;;;;;;;6.82;5.50;;;;;;;17.41;91.13;95125.09;10450600;28;20295;-74
2021/05/22 06:37:49;;;;;;;11.47;6.20;;;;;;;17.30;93.30;95126.44;10452129;28;20037;-74
2021/05/22 06:42:50;;;;;;;8.47;5.87;;;;;;;17.38;95.01;95112.94;10452782;28;20036;-74
2021/05/22 06:47:50;;;;;;;14.40;6.70;;;;;;;17.51;93.68;95111.28;10453085;28;20024;-74
2021/05/22 06:52:51;;;;;;;11.32;6.22;;;;;;;17.69;90.04;95119.56;10452549;28;20029;-74
2021/05/22 06:57:51;;;;;;;11.70;6.47;;;;;;;17.67;92.69;95119.09;10450824;28;20146;-72
2021/05/22 07:02:51;;;;;;;14.63;6.57;;;;;;;17.69;91.09;95122.28;10452352;28;20036;-73
2021/05/22 07:07:52;;;;;;;14.87;7.30;;;;;;;17.41;99.08;95135.97;10452638;28;20759;-72
2021/05/22 07:12:52;;;;;;;10.77;6.50;;;;;;;19.05;86.11;95132.91;10443805;28;20279;-73
2021/05/22 07:17:53;;;;;;;16.87;5.83;;;;;;;19.79;74.80;95134.75;10410919;28;20814;-73
2021/05/22 07:22:55;;;;;;;10.10;6.20;;;;;;;20.47;71.05;95136.03;10410752;28;20030;-73
2021/05/22 07:27:56;;;;;;;17.33;6.63;;;;;;;20.92;66.49;95140.25;10410642;28;21019;-72
2021/05/22 07:32:56;;;;;;;11.38;6.60;;;;;;;21.62;60.42;95121.47;10411069;28;20493;-72
2021/05/22 07:37:56;;;;;;;8.13;5.00;;;;;;;23.02;48.31;95084.34;10409722;28;20033;-72
2021/05/22 07:42:57;;;;;;;11.47;5.47;;;;;;;23.72;51.43;95058.59;10445542;28;20025;-72
2021/05/22 07:47:58;;;;;;;6.30;4.55;;;;;;;23.50;46.25;95048.94;10451292;28;20029;-71
2021/05/22 07:52:59;;;;;;;9.23;4.25;;;;;;;24.06;44.91;95059.13;10450737;28;20025;-72
2021/05/22 07:58:00;;;;;;;10.68;3.58;;;;;;;26.01;40.96;95049.81;10451357;28;20077;-72
2021/05/22 08:03:01;;;;;;;4.80;3.70;;;;;;;26.83;39.59;95032.31;10450767;28;20029;-72
2021/05/22 08:08:01;;;;;;;11.40;3.50;;;;;;;27.09;38.37;95042.53;10450727;28;20449;-72
2021/05/22 08:13:02;;;;;;;4.30;3.25;;;;;;;27.30;38.92;95053.06;10450708;28;20064;-72
2021/05/22 08:18:02;;;;;;;13.68;4.95;;;;;;;28.77;35.46;95058.69;10411879;28;20488;-72
2021/05/22 08:23:03;;;;;;;10.35;4.20;;;;;;;28.66;36.97;95066.88;10408952;28;20037;-72
2021/05/22 08:28:03;;;;;;;7.77;5.03;;;;;;;25.71;39.40;95055.09;10407613;28;20148;-72
2021/05/22 08:33:04;;;;;;;12.82;4.20;;;;;;;26.81;38.57;95040.16;10407317;28;20028;-72
2021/05/22 08:38:04;;;;;;;6.90;3.65;;;;;;;28.66;35.12;95030.94;10408522;28;20544;-72
2021/05/22 08:43:05;;;;;;;8.27;3.57;;;;;;;30.59;32.73;95034.16;10408050;28;20037;-72
2021/05/22 08:48:06;;;;;;;5.77;3.07;;;;;;;30.40;33.19;95029.78;10407775;28;20033;-72
2021/05/22 08:53:06;;;;;;;8.25;3.28;;;;;;;29.49;33.16;95026.72;10407588;28;20133;-72
2021/05/22 08:58:07;;;;;;;4.17;2.73;;;;;;;29.74;31.02;95026.03;10407713;28;20026;-73
2021/05/22 09:03:11;;;;;;;5.28;2.28;;;;;;;30.88;30.96;95020.28;10409389;28;20175;-72
2021/05/22 09:08:14;;;;;;;5.50;2.63;;;;;;;31.58;30.12;95005.84;10448318;28;20484;-72
2021/05/22 09:13:24;;;;;;;7.30;2.05;;;;;;;30.48;29.14;95006.44;10447231;28;20033;-72
2021/05/22 09:18:26;;;;;;;2.72;1.70;;;;;;;29.81;28.39;95000.34;10447490;28;20032;-72
2021/05/22 09:23:28;;;;;;;2.63;1.67;;;;;;;28.80;30.99;95014.44;10449744;28;20041;-72
2021/05/22 09:28:32;;;;;;;6.88;1.33;;;;;;;29.00;30.50;95005.88;10447926;28;20526;-72
2021/05/22 09:33:35;;;;;;;2.70;1.48;;;;;;;29.55;31.51;94996.69;10450211;28;20055;-72
2021/05/22 09:38:56;;;;;;;4.40;1.90;;;;;;;30.99;28.29;94994.13;10447075;28;20064;-72
2021/05/22 09:44:10;;;;;;;7.68;2.10;;;;;;;30.23;30.02;94978.69;10437797;28;20139;-72
2021/05/22 09:49:20;;;;;;;2.33;1.77;;;;;;;28.39;34.38;94973.03;10442119;28;20171;-72
2021/05/22 09:54:49;;;;;;;3.70;1.92;;;;;;;27.75;32.66;94978.72;10443710;28;20056;-72
2021/05/22 10:00:17;;;;;;;3.90;2.05;;;;;;;25.83;36.56;94971.53;10441795;28;20067;-72
2021/05/22 10:05:24;;;;;;;5.03;1.77;;;;;;;25.06;36.79;94971.19;10437697;28;20124;-71
2021/05/22 10:10:38;;;;;;;;;;;;;;;27.16;33.42;94959.88;10441540;28;20025;-73
2021/05/22 10:15:39;;;;;;;8.85;1.60;;;;;;;30.53;28.19;94941.47;10443191;28;19948;-73
2021/05/22 10:20:40;;;;;;;2.65;1.70;;;;;;;32.26;25.44;94929.66;10441018;28;20468;-73
2021/05/22 10:25:41;;;;;;;6.13;2.13;;;;;;;33.21;24.28;94914.44;10444804;28;20057;-71
2021/05/22 10:30:42;;;;;;;7.03;2.22;;;;;;;34.32;25.57;94898.19;10404636;28;20025;-72
2021/05/22 10:35:42;;;;;;;5.93;2.13;;;;;;;33.17;24.38;94892.22;10404402;28;20107;-71
2021/05/22 10:40:51;;;;;;;4.00;1.57;;;;;;;33.72;23.67;94881.16;10404542;28;20045;-72
2021/05/22 10:45:58;;;;;;;6.45;1.60;;;;;;;34.15;22.61;94874.94;10403965;28;20017;-72
2021/05/22 10:50:59;;;;;;;3.88;1.08;;;;;;;34.37;24.27;94867.03;10404286;28;20018;-72
2021/05/22 10:56:14;;;;;;;2.80;1.10;;;;;;;35.72;22.88;94852.78;10404016;28;20546;-75
2021/05/22 11:01:24;;;;;;;2.70;0.93;;;;;;;34.56;22.74;94845.94;10444787;28;20025;-72
2021/05/22 11:06:44;;;;;;;3.50;1.33;;;;;;;29.76;26.21;94848.34;10407630;28;20037;-71
2021/05/22 11:11:44;;;;;;;4.18;1.10;;;;;;;26.64;27.82;94852.00;10417987;28;20037;-71
2021/05/22 11:16:45;;;;;;;2.50;1.40;;;;;;;25.88;30.08;94853.63;10411605;28;20489;-71
2021/05/22 11:22:16;;;;;;;6.47;1.70;;;;;;;24.75;31.99;94843.72;10409627;28;20116;-72
2021/05/22 11:27:17;;;;;;;4.60;1.08;;;;;;;24.09;32.11;94848.94;10410437;28;20050;-72
2021/05/22 11:32:42;;;;;;;2.67;1.50;;;;;;;23.72;31.83;94841.78;10411142;28;20029;-73
2021/05/22 11:37:42;;;;;;;3.85;1.35;;;;;;;23.57;34.78;94834.38;10410418;28;20264;-73
2021/05/22 11:42:43;;;;;;;3.63;1.90;;;;;;;23.30;38.95;94838.75;10425399;28;20094;-72
2021/05/22 11:47:43;;;;;;;2.60;1.87;;;;;;;23.32;35.55;94833.75;10451228;28;20087;-72
2021/05/22 11:52:43;;;;;;;1.87;1.60;;;;;;;23.04;36.81;94826.31;10451108;28;20028;-72
2021/05/22 11:57:44;;;;;;;7.03;1.40;;;;;;;22.81;34.67;94812.38;10446182;28;20400;-72
2021/05/22 12:02:44;;;;;;;7.27;1.67;;;;;;;22.77;33.52;94797.78;10409594;28;20029;-72
2021/05/22 12:07:56;;;;;;;5.20;2.10;;;;;;;22.65;34.40;94802.19;10409427;28;20547;-73
2021/05/22 12:13:01;;;;;;;5.60;1.60;;;;;;;22.58;35.42;94799.25;10409804;28;20398;-72
2021/05/22 12:18:04;;;;;;;2.20;1.80;;;;;;;22.50;35.24;94789.22;10416809;28;20029;-72
2021/05/22 12:23:31;;;;;;;5.78;2.38;;;;;;;22.81;33.99;94802.22;10449555;28;20099;-72
2021/05/22 12:28:32;;;;;;;2.80;1.75;;;;;;;22.68;35.43;94790.50;10450318;28;20136;-73
2021/05/22 12:33:32;;;;;;;2.70;1.95;;;;;;;22.94;34.39;94782.97;10448158;28;20052;-72
2021/05/22 12:38:47;;;;;;;3.40;1.50;;;;;;;22.98;33.53;94779.19;10449448;28;20037;-72
2021/05/22 12:43:51;;;;;;;3.25;1.35;;;;;;;23.13;34.02;94765.88;10448579;28;20032;-73
2021/05/22 12:48:52;;;;;;;6.15;1.65;;;;;;;22.96;33.87;94758.75;10424070;28;20064;-72
2021/05/22 12:53:52;;;;;;;4.45;1.85;;;;;;;22.98;33.99;94757.25;10407785;28;20032;-72
2021/05/22 12:59:11;;;;;;;3.80;1.70;;;;;;;23.10;37.52;94747.38;10407698;28;20025;-72
2021/05/22 13:04:25;;;;;;;4.10;1.55;;;;;;;23.04;33.56;94724.91;10407438;28;20033;-72
2021/05/22 13:09:26;;;;;;;2.55;1.80;;;;;;;22.86;33.58;94722.50;10447322;28;20049;-72
2021/05/22 13:14:50;;;;;;;2.00;1.60;;;;;;;22.69;33.95;94709.94;10448304;28;20107;-72
2021/05/22 13:19:53;;;;;;;2.85;1.50;;;;;;;22.52;35.53;94710.25;10448130;28;20025;-72
2021/05/22 13:25:18;;;;;;;5.72;2.67;;;;;;;22.37;35.18;94706.34;10447611;28;20040;-72
2021/05/22 13:30:22;;;;;;;6.40;2.00;;;;;;;22.30;34.86;94690.47;10444547;28;20033;-72
2021/05/22 13:35:28;;;;;;;3.40;1.83;;;;;;;22.13;34.47;94694.31;10447147;28;20036;-72
2021/05/22 13:40:34;;;;;;;1.95;1.50;;;;;;;22.10;34.24;94677.78;10447439;28;20072;-72
2021/05/22 13:45:35;;;;;;;3.40;1.60;;;;;;;22.03;35.17;94672.91;10446658;28;20102;-72
2021/05/22 13:50:36;;;;;;;4.78;2.10;;;;;;;21.88;35.71;94668.97;10446978;28;20028;-72
2021/05/22 13:55:36;;;;;;;3.08;1.73;;;;;;;21.75;36.13;94670.16;10445036;28;20033;-72
2021/05/22 14:00:37;;;;;;;3.83;1.87;;;;;;;21.67;36.81;94678.16;10429084;28;20484;-71
2021/05/22 14:05:38;;;;;;;2.92;1.58;;;;;;;21.86;36.65;94673.97;10405446;28;20112;-72
2021/05/22 14:10:39;;;;;;;4.47;1.90;;;;;;;21.94;36.04;94672.25;10404845;28;20465;-73
2021/05/22 14:15:39;;;;;;;5.85;2.22;;;;;;;21.95;35.49;94658.22;10423398;28;20494;-74
2021/05/22 14:20:39;;;;;;;4.45;1.67;;;;;;;21.93;35.02;94652.28;10439841;28;20029;-74
2021/05/22 14:25:40;;;;;;;1.93;1.60;;;;;;;21.83;35.52;94650.06;10404277;28;20068;-74
2021/05/22 14:30:40;;;;;;;1.90;1.42;;;;;;;21.82;34.97;94659.41;10405837;28;20288;-73
2021/05/22 14:35:41;;;;;;;4.15;2.38;;;;;;;21.81;36.69;94672.28;10445040;28;20063;-73
2021/05/22 14:40:41;;;;;;;2.23;1.70;;;;;;;21.83;35.61;94677.41;10446213;28;20033;-73
2021/05/22 14:45:42;;;;;;;2.42;1.40;;;;;;;21.78;36.32;94666.72;10446009;28;20020;-73
2021/05/22 14:50:42;;;;;;;3.10;1.77;;;;;;;21.88;38.01;94659.94;10452371;28;20728;-73
2021/05/22 14:55:42;;;;;;;5.00;1.40;;;;;;;21.94;35.56;94647.63;10454251;28;20033;-73
2021/05/22 15:00:43;;;;;;;2.73;1.30;;;;;;;21.76;36.82;94649.88;10453419;28;20474;-73
2021/05/22 15:05:44;;;;;;;3.33;1.50;;;;;;;21.74;38.57;94646.66;10453594;28;20506;-73
2021/05/22 15:10:45;;;;;;;1.65;1.45;;;;;;;21.70;37.37;94641.09;10453153;28;20025;-73
2021/05/22 15:15:45;;;;;;;2.35;1.50;;;;;;;21.66;36.96;94637.47;10452443;28;20039;-73
2021/05/22 15:20:47;;;;;;;3.92;1.73;;;;;;;21.66;37.24;94635.50;10453089;28;20403;-73
2021/05/22 15:25:47;;;;;;;5.88;1.60;;;;;;;21.81;36.80;94641.38;10452677;28;20464;-73
2021/05/22 15:30:48;;;;;;;4.80;1.97;;;;;;;21.90;37.22;94628.38;10413004;28;20033;-74
2021/05/22 15:35:48;;;;;;;3.40;1.60;;;;;;;21.96;36.53;94637.94;10411448;28;20030;-73
2021/05/22 15:40:49;;;;;;;2.55;1.45;;;;;;;22.03;35.68;94631.84;10410947;28;20088;-74
2021/05/22 15:45:52;;;;;;;4.97;1.90;;;;;;;22.06;36.67;94633.09;10418402;28;20036;-74
2021/05/22 15:51:40;;;;;;;3.58;1.80;;;;;;;22.13;36.23;94645.03;10450935;28;20698;-74
2021/05/22 16:06:40;;;;;;;2.92;1.73;;;;;;;21.97;36.32;94660.63;10451163;28;20377;-74
2021/05/22 16:11:40;;;;;;;3.30;1.67;;;;;;;22.01;35.48;94647.81;10451159;28;20025;-74
2021/05/22 16:16:41;;;;;;;3.83;1.63;;;;;;;22.08;35.51;94636.28;10450193;28;20035;-74
2021/05/22 16:21:42;;;;;;;2.08;1.70;;;;;;;22.14;35.85;94635.66;10449714;28;20291;-74
2021/05/22 16:26:43;;;;;;;3.33;1.42;;;;;;;22.18;35.70;94646.72;10449607;28;20078;-75
2021/05/22 16:31:45;;;;;;;3.70;1.65;;;;;;;22.13;35.86;94650.53;10450110;28;20029;-74
2021/05/22 16:36:45;;;;;;;3.78;1.42;;;;;;;22.00;36.87;94651.69;10448879;28;20403;-74
2021/05/22 16:41:46;;;;;;;2.03;1.43;;;;;;;21.84;36.93;94649.72;10430151;28;20036;-74
2021/05/22 16:46:46;;;;;;;3.00;1.63;;;;;;;21.66;38.78;94646.47;10408481;28;20033;-74
2021/05/22 16:51:46;;;;;;;2.23;1.50;;;;;;;21.40;35.65;94641.34;10407872;28;20477;-74
2021/05/22 16:56:47;;;;;;;7.43;2.80;;;;;;;21.32;39.14;94658.69;10407756;28;20508;-74
2021/05/22 17:01:47;;;;;;;8.60;3.60;;;;;;;21.24;38.49;94671.34;10447303;28;20021;-74
2021/05/22 17:06:48;;;;;;;3.90;2.73;;;;;;;21.20;37.15;94654.03;10448439;28;20031;-74
2021/05/22 17:11:48;;;;;;;5.95;2.40;;;;;;;21.02;39.85;94666.34;10447742;28;20290;-75
2021/05/22 17:16:49;;;;;;;4.28;2.05;;;;;;;20.98;38.27;94677.94;10447963;28;20036;-74
2021/05/22 17:21:50;;;;;;;8.77;2.57;;;;;;;20.92;40.12;94689.44;10448079;28;20051;-74
2021/05/22 17:26:51;;;;;;;7.60;2.60;;;;;;;20.79;42.61;94699.53;10447174;28;20049;-74
2021/05/22 17:31:51;;;;;;;6.85;2.40;;;;;;;20.60;42.44;94700.84;10411104;28;20507;-74
2021/05/22 17:36:52;;;;;;;11.90;3.23;;;;;;;20.57;42.61;94707.00;10405467;28;20022;-74
2021/05/22 17:41:52;;;;;;;7.63;4.32;;;;;;;20.45;42.32;94712.41;10404233;28;20105;-75
2021/05/22 17:46:53;;;;;;;5.93;2.87;;;;;;;20.26;43.83;94715.66;10404631;28;20036;-74
2021/05/22 17:51:53;;;;;;;3.60;1.98;;;;;;;20.19;44.47;94718.94;10404225;28;20025;-74
2021/05/22 17:56:54;;;;;;;6.87;2.13;;;;;;;20.10;46.09;94732.63;10404056;28;20036;-74
2021/05/22 18:01:54;;;;;;;7.63;2.03;;;;;;;20.00;45.53;94733.06;10434149;28;20033;-74
2021/05/22 18:06:55;;;;;;;8.57;2.35;;;;;;;19.89;47.09;94749.00;10443318;28;20029;-74
2021/05/22 18:11:56;;;;;;;8.77;2.58;;;;;;;19.84;46.59;94742.97;10442732;28;20383;-74
2021/05/22 18:16:56;;;;;;;5.90;2.97;;;;;;;19.76;46.96;94741.88;10418216;28;20025;-73
2021/05/22 18:21:56;;;;;;;5.20;2.10;;;;;;;19.68;47.85;94745.44;10431889;28;20053;-72
2021/05/22 18:26:57;;;;;;;3.73;2.40;;;;;;;19.60;48.79;94766.19;10457399;28;20397;-73
2021/05/22 18:31:57;;;;;;;10.70;3.08;;;;;;;19.44;49.66;94768.69;10448009;28;20717;-73
2021/05/22 18:36:57;;;;;;;7.67;2.67;;;;;;;19.37;49.81;94769.19;10416798;28;20053;-73
2021/05/22 18:41:58;;;;;;;4.63;2.17;;;;;;;19.34;49.58;94772.56;10424268;28;20090;-73
2021/05/22 18:46:58;;;;;;;5.93;2.97;;;;;;;19.24;50.47;94775.66;10458275;28;20029;-73
2021/05/22 18:51:59;;;;;;;4.83;3.13;;;;;;;19.11;52.44;94778.25;10457622;28;20023;-73
2021/05/22 18:56:59;;;;;;;15.37;6.03;;;;;;;19.03;51.22;94781.03;10454680;28;20080;-73
2021/05/22 19:02:00;;;;;;;20.63;8.63;;;;;;;18.91;53.17;94779.78;10453319;28;20017;-73
2021/05/22 19:07:00;;;;;;;22.17;13.25;;;;;;;18.88;54.70;94791.34;10450193;28;20032;-72
2021/05/22 19:12:01;;;;;;;14.07;7.70;;;;;;;18.73;55.76;94789.09;10456353;28;20025;-73
2021/05/22 19:17:01;;;;;;;11.87;6.67;;;;;;;18.61;57.97;94787.84;10456388;28;20385;-73
2021/05/22 19:22:04;;;;;;;6.47;3.20;;;;;;;18.28;62.83;94795.72;10433162;28;20115;-73
2021/05/22 19:27:05;;;;;;;6.03;4.05;;;;;;;18.08;67.26;94797.13;10440241;28;20420;-73
2021/05/22 19:32:06;;;;;;;11.02;4.00;;;;;;;18.01;68.19;94796.81;10415787;28;20032;-78
2021/05/22 19:37:06;;;;;;;10.27;4.07;;;;;;;17.93;69.58;94799.22;10409880;28;20037;-77
2021/05/22 19:42:07;;;;;;;7.97;4.73;;;;;;;17.80;69.73;94804.75;10433461;28;20021;-78
2021/05/22 19:47:08;;;;;;;12.63;3.77;;;;;;;17.76;72.67;94796.44;10413720;28;20028;-78
2021/05/22 19:52:09;;;;;;;10.25;7.03;;;;;;;17.82;77.41;94791.63;10450199;28;20025;-78
2021/05/22 19:57:09;;;;;;;12.50;4.77;;;;;;;17.66;75.08;94791.31;10435947;28;20115;-78
2021/05/22 20:02:10;;;;;;;9.18;4.68;;;;;;;17.65;81.39;94786.97;10406609;28;20269;-78
2021/05/22 20:07:13;;;;;;;5.63;3.53;;;;;;;17.60;69.74;94796.88;10434618;28;20025;-78
2021/05/22 20:12:14;;;;;;;7.32;4.38;;;;;;;17.53;71.47;94799.25;10426832;28;20431;-77
2021/05/22 20:17:14;;;;;;;9.68;3.45;;;;;;;17.43;71.83;94791.41;10408143;28;20037;-78
2021/05/22 20:22:15;;;;;;;15.97;8.43;;;;;;;17.37;74.23;94796.19;10408887;28;20022;-78
2021/05/22 20:27:15;;;;;;;7.70;3.58;;;;;;;17.35;73.03;94797.63;10448381;28;20049;-77
2021/05/22 20:32:16;;;;;;;10.05;3.85;;;;;;;17.41;78.25;94797.16;10449019;28;20459;-77
2021/05/22 20:37:17;;;;;;;6.25;3.70;;;;;;;17.48;80.89;94795.91;10447363;28;20028;-77
2021/05/22 20:42:17;;;;;;;9.70;3.93;;;;;;;17.45;80.24;94786.44;10424857;28;20025;-78
2021/05/22 20:47:17;;;;;;;2.90;2.20;;;;;;;17.32;69.52;94796.34;10405209;28;20268;-78
2021/05/22 20:52:18;;;;;;;6.40;3.00;;;;;;;17.33;68.96;94794.41;10406802;28;20272;-78
2021/05/22 20:57:18;;;;;;;4.65;2.83;;;;;;;17.19;71.47;94806.19;10416155;28;20701;-78
2021/05/22 21:02:21;;;;;;;7.40;3.08;;;;;;;17.10;72.90;94810.78;10447573;28;20103;-78
2021/05/22 21:07:23;;;;;;;6.72;3.00;;;;;;;16.93;78.10;94814.22;10447416;28;20112;-78
2021/05/22 21:12:23;;;;;;;5.45;3.10;;;;;;;16.61;80.17;94823.41;10445727;28;20056;-77
2021/05/22 21:17:23;;;;;;;6.03;3.60;;;;;;;16.44;82.93;94819.47;10445596;28;20144;-77
2021/05/22 21:22:24;;;;;;;6.13;3.23;;;;;;;16.37;89.25;94827.25;10419079;28;20299;-78
2021/05/22 21:27:25;;;;;;;3.88;2.53;;;;;;;16.10;87.50;94838.97;10405302;28;20053;-77
2021/05/22 21:32:25;;;;;;;5.53;3.38;;;;;;;15.79;93.38;94843.13;10405469;28;20022;-78
2021/05/22 21:37:26;;;;;;;8.50;3.40;;;;;;;15.58;96.84;94841.94;10405114;28;20025;-78
2021/05/22 21:42:26;;;;;;;4.30;3.60;;;;;;;15.64;99.21;94838.00;10404834;28;20029;-77
2021/05/22 21:47:27;;;;;;;5.00;3.53;;;;;;;15.53;94.69;94840.13;10424339;28;20476;-77
2021/05/22 21:52:29;;;;;;;5.17;3.43;;;;;;;15.42;100.00;94842.25;10445749;28;20463;-78
2021/05/22 21:57:30;;;;;;;9.15;4.18;;;;;;;15.47;100.00;94847.53;10445308;28;20283;-77
2021/05/22 22:02:30;;;;;;;4.25;3.28;;;;;;;15.37;100.00;94853.97;10445733;28;20021;-77
2021/05/22 22:07:30;;;;;;;8.03;3.93;;;;;;;14.99;100.00;94842.50;10445304;28;20028;-78
2021/05/22 22:12:31;;;;;;;9.20;3.67;;;;;;;14.78;100.00;94836.66;10444604;28;20072;-77
2021/05/22 22:17:31;;;;;;;8.40;3.53;;;;;;;14.78;100.00;94837.44;10443697;28;20095;-77
2021/05/22 22:22:32;;;;;;;4.65;3.30;;;;;;;14.77;100.00;94846.66;10428062;28;20108;-77
2021/05/22 22:27:33;;;;;;;7.13;3.13;;;;;;;14.82;100.00;94848.50;10403851;28;20049;-77
2021/05/22 22:32:34;;;;;;;3.78;2.97;;;;;;;14.53;100.00;94830.53;10403524;28;20071;-77
2021/05/22 22:37:35;;;;;;;5.10;3.38;;;;;;;14.53;100.00;94841.34;10408412;28;20021;-77
2021/05/22 22:42:37;;;;;;;4.00;2.85;;;;;;;14.47;100.00;94843.34;10444674;28;20025;-77
2021/05/22 22:47:37;;;;;;;5.88;3.38;;;;;;;14.37;100.00;94835.38;10443354;28;20025;-77
2021/05/22 22:52:38;;;;;;;4.90;3.30;;;;;;;14.39;100.00;94845.94;10438103;28;20484;-78
2021/05/22 22:57:38;;;;;;;8.55;2.85;;;;;;;14.47;100.00;94851.47;10421102;28;20385;-78
2021/05/22 23:02:39;;;;;;;4.67;2.97;;;;;;;14.49;100.00;94848.47;10425989;28;20461;-78
2021/05/22 23:07:40;;;;;;;3.58;2.80;;;;;;;14.43;100.00;94841.50;10443874;28;20036;-78
2021/05/22 23:12:41;;;;;;;4.38;2.90;;;;;;;14.29;100.00;94847.69;10410599;28;20021;-78
2021/05/22 23:17:43;;;;;;;8.82;3.65;;;;;;;14.17;100.00;94837.28;10410608;28;20033;-78
2021/05/22 23:22:45;;;;;;;4.72;3.75;;;;;;;13.98;100.00;94841.91;10410487;28;20056;-78
2021/05/22 23:27:46;;;;;;;7.13;3.30;;;;;;;13.87;100.00;94841.25;10410259;28;20137;-78
2021/05/22 23:32:48;;;;;;;3.28;2.72;;;;;;;13.83;100.00;94857.22;10409815;28;20555;-77